Etusivu
METAR-TAF:

METAR-TAF

Lentoasemat :

Omak Airport

Omak, Washington, Yhdysvallat

Leveyspiiri: 48-27-51N, Pituuspiiri: 119-31-05W, korkeus merenpinnasta: 397 m

Tämänhetkinen sää

Tämä raportti tehtiin 51 minuuttia sitten, kello 02.53 UTC
Tuuli 10 kn pohjoisesta
Lämpötila 17°C
Kosteus 42%
Ilmanpaine 1016 hPa
Näkyvyys: 16.1 km
Muutamia pilviä 10000 ft:n korkeudessa

METAR: KOMK 210253Z AUTO 01010KT 10SM FEW100 17/04 A3001 RMK AO2 SLP164 T01720044 53001 $

Aika: 20:44 (03:44 UTC)


TAF: puuttuu

Säähavainnot ja -ennusteet yli 4000 lentoasemalta (METAR- ja TAF-raportit).

Käytössä olevat sääasemat on merkitty karttaan keltaisilla ja punaisilla pisteillä.

Aseta hiiri pisteen päälle nähdäksesi sääaseman nimen.

Klikkaa sitten nähdäksesi säähavainnot ja -ennusteet.

Kartan vaihtaminen: klikkaa mustalla rastilla varustettuja vihreitä pisteitä, niin voit zoomata sisään; viivalla varustettua vihreää pistettä, niin voit zoomata ulos tai vihreitä nuolia, niin pääset viereisille kartoille.


METAR-TAF: